sensor_id;sensor_type;location;lat;lon;timestamp;pressure;altitude;pressure_sealevel;temperature
80422;BMP280;69763;50.182;9.144;2023-07-31T00:01:02;99849.44;;;16.13
80422;BMP280;69763;50.182;9.144;2023-07-31T00:03:29;99846.13;;;16.14
80422;BMP280;69763;50.182;9.144;2023-07-31T00:05:55;99842.13;;;16.15
80422;BMP280;69763;50.182;9.144;2023-07-31T00:08:20;99848.31;;;16.16
80422;BMP280;69763;50.182;9.144;2023-07-31T00:10:45;99835.53;;;16.18
80422;BMP280;69763;50.182;9.144;2023-07-31T00:13:11;99833.50;;;16.19
80422;BMP280;69763;50.182;9.144;2023-07-31T00:15:36;99832.06;;;16.18
80422;BMP280;69763;50.182;9.144;2023-07-31T00:18:02;99837.38;;;16.16
80422;BMP280;69763;50.182;9.144;2023-07-31T00:20:29;99838.09;;;16.16
80422;BMP280;69763;50.182;9.144;2023-07-31T00:22:54;99840.13;;;16.16
80422;BMP280;69763;50.182;9.144;2023-07-31T00:25:19;99843.56;;;16.16
80422;BMP280;69763;50.182;9.144;2023-07-31T00:27:45;99840.81;;;16.16
80422;BMP280;69763;50.182;9.144;2023-07-31T00:30:11;99837.94;;;16.14
80422;BMP280;69763;50.182;9.144;2023-07-31T00:32:36;99840.66;;;16.14
80422;BMP280;69763;50.182;9.144;2023-07-31T00:35:02;99841.97;;;16.13
80422;BMP280;69763;50.182;9.144;2023-07-31T00:37:29;99835.03;;;16.12
80422;BMP280;69763;50.182;9.144;2023-07-31T00:39:54;99830.13;;;16.11
80422;BMP280;69763;50.182;9.144;2023-07-31T00:42:19;99831.41;;;16.09
80422;BMP280;69763;50.182;9.144;2023-07-31T00:44:45;99831.97;;;16.08
80422;BMP280;69763;50.182;9.144;2023-07-31T00:47:11;99832.19;;;16.02
80422;BMP280;69763;50.182;9.144;2023-07-31T00:49:36;99827.69;;;15.97
80422;BMP280;69763;50.182;9.144;2023-07-31T00:52:03;99827.88;;;15.92
80422;BMP280;69763;50.182;9.144;2023-07-31T00:54:29;99829.56;;;15.87
80422;BMP280;69763;50.182;9.144;2023-07-31T00:56:56;99828.50;;;15.83
80422;BMP280;69763;50.182;9.144;2023-07-31T00:59:21;99820.50;;;15.77
80422;BMP280;69763;50.182;9.144;2023-07-31T01:01:47;99816.16;;;15.74
80422;BMP280;69763;50.182;9.144;2023-07-31T01:04:13;99809.63;;;15.70
80422;BMP280;69763;50.182;9.144;2023-07-31T01:06:43;99811.28;;;15.65
80422;BMP280;69763;50.182;9.144;2023-07-31T01:09:18;99805.53;;;15.61
80422;BMP280;69763;50.182;9.144;2023-07-31T01:11:50;99800.41;;;15.57
80422;BMP280;69763;50.182;9.144;2023-07-31T01:14:17;99809.00;;;15.54
80422;BMP280;69763;50.182;9.144;2023-07-31T01:16:42;99807.41;;;15.51
80422;BMP280;69763;50.182;9.144;2023-07-31T01:19:09;99816.88;;;15.50
80422;BMP280;69763;50.182;9.144;2023-07-31T01:21:54;99805.75;;;15.48
80422;BMP280;69763;50.182;9.144;2023-07-31T01:24:28;99811.06;;;15.46
80422;BMP280;69763;50.182;9.144;2023-07-31T01:26:58;99808.88;;;15.44
80422;BMP280;69763;50.182;9.144;2023-07-31T01:29:33;99812.88;;;15.43
80422;BMP280;69763;50.182;9.144;2023-07-31T01:32:02;99804.69;;;15.43
80422;BMP280;69763;50.182;9.144;2023-07-31T01:34:28;99797.03;;;15.42
80422;BMP280;69763;50.182;9.144;2023-07-31T01:36:54;99791.56;;;15.42
80422;BMP280;69763;50.182;9.144;2023-07-31T01:39:20;99785.75;;;15.45
80422;BMP280;69763;50.182;9.144;2023-07-31T01:41:46;99797.56;;;15.48
80422;BMP280;69763;50.182;9.144;2023-07-31T01:44:12;99792.81;;;15.48
80422;BMP280;69763;50.182;9.144;2023-07-31T01:46:38;99790.28;;;15.50
80422;BMP280;69763;50.182;9.144;2023-07-31T01:49:03;99785.69;;;15.53
80422;BMP280;69763;50.182;9.144;2023-07-31T01:51:29;99788.44;;;15.53
80422;BMP280;69763;50.182;9.144;2023-07-31T01:53:54;99786.44;;;15.53
80422;BMP280;69763;50.182;9.144;2023-07-31T01:56:19;99778.97;;;15.54
80422;BMP280;69763;50.182;9.144;2023-07-31T01:58:45;99776.22;;;15.54
80422;BMP280;69763;50.182;9.144;2023-07-31T02:01:11;99765.28;;;15.54
80422;BMP280;69763;50.182;9.144;2023-07-31T02:03:37;99768.56;;;15.52
80422;BMP280;69763;50.182;9.144;2023-07-31T02:06:02;99760.56;;;15.54
80422;BMP280;69763;50.182;9.144;2023-07-31T02:08:28;99763.28;;;15.54
80422;BMP280;69763;50.182;9.144;2023-07-31T02:10:54;99765.47;;;15.56
80422;BMP280;69763;50.182;9.144;2023-07-31T02:13:19;99765.47;;;15.56
80422;BMP280;69763;50.182;9.144;2023-07-31T02:15:45;99766.19;;;15.56
80422;BMP280;69763;50.182;9.144;2023-07-31T02:18:12;99764.91;;;15.57
80422;BMP280;69763;50.182;9.144;2023-07-31T02:20:37;99753.44;;;15.59
80422;BMP280;69763;50.182;9.144;2023-07-31T02:23:02;99749.56;;;15.62
80422;BMP280;69763;50.182;9.144;2023-07-31T02:25:28;99750.31;;;15.62
80422;BMP280;69763;50.182;9.144;2023-07-31T02:27:53;99755.94;;;15.64
80422;BMP280;69763;50.182;9.144;2023-07-31T02:30:19;99745.72;;;15.65
80422;BMP280;69763;50.182;9.144;2023-07-31T02:32:44;99745.88;;;15.67
80422;BMP280;69763;50.182;9.144;2023-07-31T02:35:11;99750.06;;;15.68
80422;BMP280;69763;50.182;9.144;2023-07-31T02:37:36;99748.94;;;15.71
80422;BMP280;69763;50.182;9.144;2023-07-31T02:40:02;99743.09;;;15.75
80422;BMP280;69763;50.182;9.144;2023-07-31T02:42:27;99740.53;;;15.77
80422;BMP280;69763;50.182;9.144;2023-07-31T02:44:53;99742.88;;;15.80
80422;BMP280;69763;50.182;9.144;2023-07-31T02:47:18;99745.22;;;15.84
80422;BMP280;69763;50.182;9.144;2023-07-31T02:49:44;99744.69;;;15.85
80422;BMP280;69763;50.182;9.144;2023-07-31T02:52:10;99739.91;;;15.86
80422;BMP280;69763;50.182;9.144;2023-07-31T02:54:36;99744.69;;;15.85
80422;BMP280;69763;50.182;9.144;2023-07-31T02:57:02;99749.56;;;15.87
80422;BMP280;69763;50.182;9.144;2023-07-31T02:59:27;99743.94;;;15.85
80422;BMP280;69763;50.182;9.144;2023-07-31T03:01:53;99745.38;;;15.86
80422;BMP280;69763;50.182;9.144;2023-07-31T03:04:18;99752.16;;;15.85
80422;BMP280;69763;50.182;9.144;2023-07-31T03:06:44;99750.28;;;15.87
80422;BMP280;69763;50.182;9.144;2023-07-31T03:09:10;99750.47;;;15.89
80422;BMP280;69763;50.182;9.144;2023-07-31T03:11:36;99742.28;;;15.89
80422;BMP280;69763;50.182;9.144;2023-07-31T03:14:01;99749.34;;;15.92
80422;BMP280;69763;50.182;9.144;2023-07-31T03:16:27;99753.53;;;15.93
80422;BMP280;69763;50.182;9.144;2023-07-31T03:18:52;99754.28;;;15.94
80422;BMP280;69763;50.182;9.144;2023-07-31T03:21:17;99750.94;;;15.95
80422;BMP280;69763;50.182;9.144;2023-07-31T03:23:43;99753.13;;;15.97
80422;BMP280;69763;50.182;9.144;2023-07-31T03:26:10;99753.31;;;15.99
80422;BMP280;69763;50.182;9.144;2023-07-31T03:28:35;99752.59;;;15.98
80422;BMP280;69763;50.182;9.144;2023-07-31T03:31:01;99737.66;;;15.99
80422;BMP280;69763;50.182;9.144;2023-07-31T03:33:26;99749.28;;;16.00
80422;BMP280;69763;50.182;9.144;2023-07-31T03:35:52;99740.94;;;15.98
80422;BMP280;69763;50.182;9.144;2023-07-31T03:38:17;99750.59;;;15.99
80422;BMP280;69763;50.182;9.144;2023-07-31T03:40:43;99749.69;;;15.96
80422;BMP280;69763;50.182;9.144;2023-07-31T03:43:10;99746.63;;;15.92
80422;BMP280;69763;50.182;9.144;2023-07-31T03:45:35;99753.03;;;15.87
80422;BMP280;69763;50.182;9.144;2023-07-31T03:48:01;99750.91;;;15.78
80422;BMP280;69763;50.182;9.144;2023-07-31T03:50:26;99746.59;;;15.68
80422;BMP280;69763;50.182;9.144;2023-07-31T03:52:52;99743.78;;;15.58
80422;BMP280;69763;50.182;9.144;2023-07-31T03:55:17;99748.56;;;15.50
80422;BMP280;69763;50.182;9.144;2023-07-31T03:57:43;99751.50;;;15.44
80422;BMP280;69763;50.182;9.144;2023-07-31T04:00:10;99754.63;;;15.41
80422;BMP280;69763;50.182;9.144;2023-07-31T04:02:36;99749.72;;;15.39
80422;BMP280;69763;50.182;9.144;2023-07-31T04:05:01;99750.44;;;15.40
80422;BMP280;69763;50.182;9.144;2023-07-31T04:07:27;99750.06;;;15.43
80422;BMP280;69763;50.182;9.144;2023-07-31T04:09:52;99746.22;;;15.46
80422;BMP280;69763;50.182;9.144;2023-07-31T04:12:18;99742.38;;;15.49
80422;BMP280;69763;50.182;9.144;2023-07-31T04:14:43;99746.56;;;15.50
80422;BMP280;69763;50.182;9.144;2023-07-31T04:17:10;99750.72;;;15.51
80422;BMP280;69763;50.182;9.144;2023-07-31T04:19:35;99748.72;;;15.52
80422;BMP280;69763;50.182;9.144;2023-07-31T04:22:00;99746.91;;;15.54
80422;BMP280;69763;50.182;9.144;2023-07-31T04:24:26;99740.91;;;15.56
80422;BMP280;69763;50.182;9.144;2023-07-31T04:26:51;99737.03;;;15.59
80422;BMP280;69763;50.182;9.144;2023-07-31T04:29:17;99737.38;;;15.63
80422;BMP280;69763;50.182;9.144;2023-07-31T04:31:42;99736.22;;;15.66
80422;BMP280;69763;50.182;9.144;2023-07-31T04:34:09;99730.38;;;15.70
80422;BMP280;69763;50.182;9.144;2023-07-31T04:36:34;99727.81;;;15.72
80422;BMP280;69763;50.182;9.144;2023-07-31T04:39:00;99728.53;;;15.72
80422;BMP280;69763;50.182;9.144;2023-07-31T04:41:26;99726.53;;;15.73
80422;BMP280;69763;50.182;9.144;2023-07-31T04:43:51;99736.00;;;15.72
80422;BMP280;69763;50.182;9.144;2023-07-31T04:46:16;99732.53;;;15.71
80422;BMP280;69763;50.182;9.144;2023-07-31T04:48:42;99728.53;;;15.72
80422;BMP280;69763;50.182;9.144;2023-07-31T04:51:09;99732.19;;;15.75
80422;BMP280;69763;50.182;9.144;2023-07-31T04:53:34;99729.78;;;15.79
80422;BMP280;69763;50.182;9.144;2023-07-31T04:55:59;99733.56;;;15.83
80422;BMP280;69763;50.182;9.144;2023-07-31T04:58:25;99727.72;;;15.87
80422;BMP280;69763;50.182;9.144;2023-07-31T05:00:50;99732.78;;;15.90
80422;BMP280;69763;50.182;9.144;2023-07-31T05:03:15;99727.66;;;15.94
80422;BMP280;69763;50.182;9.144;2023-07-31T05:05:41;99722.88;;;15.95
80422;BMP280;69763;50.182;9.144;2023-07-31T05:08:07;99718.16;;;15.95
80422;BMP280;69763;50.182;9.144;2023-07-31T05:10:33;99721.06;;;15.97
80422;BMP280;69763;50.182;9.144;2023-07-31T05:12:58;99715.78;;;15.99
80422;BMP280;69763;50.182;9.144;2023-07-31T05:15:24;99730.88;;;16.00
80422;BMP280;69763;50.182;9.144;2023-07-31T05:17:49;99720.84;;;16.03
80422;BMP280;69763;50.182;9.144;2023-07-31T05:20:15;99717.69;;;16.06
80422;BMP280;69763;50.182;9.144;2023-07-31T05:22:40;99718.59;;;16.09
80422;BMP280;69763;50.182;9.144;2023-07-31T05:25:07;99724.06;;;16.09
80422;BMP280;69763;50.182;9.144;2023-07-31T05:27:33;99719.31;;;16.09
80422;BMP280;69763;50.182;9.144;2023-07-31T05:29:58;99724.94;;;16.12
80422;BMP280;69763;50.182;9.144;2023-07-31T05:32:24;99723.09;;;16.14
80422;BMP280;69763;50.182;9.144;2023-07-31T05:34:50;99715.91;;;16.19
80422;BMP280;69763;50.182;9.144;2023-07-31T05:37:16;99721.16;;;16.24
80422;BMP280;69763;50.182;9.144;2023-07-31T05:39:41;99711.25;;;16.29
80422;BMP280;69763;50.182;9.144;2023-07-31T05:42:08;99705.41;;;16.32
80422;BMP280;69763;50.182;9.144;2023-07-31T05:44:33;99726.00;;;16.33
80422;BMP280;69763;50.182;9.144;2023-07-31T05:46:59;99719.41;;;16.36
80422;BMP280;69763;50.182;9.144;2023-07-31T05:49:24;99719.19;;;16.42
80422;BMP280;69763;50.182;9.144;2023-07-31T05:51:49;99724.97;;;16.46
80422;BMP280;69763;50.182;9.144;2023-07-31T05:54:15;99719.66;;;16.48
80422;BMP280;69763;50.182;9.144;2023-07-31T05:56:40;99731.63;;;16.52
80422;BMP280;69763;50.182;9.144;2023-07-31T05:59:08;99716.25;;;16.57
80422;BMP280;69763;50.182;9.144;2023-07-31T06:01:34;99715.28;;;16.62
80422;BMP280;69763;50.182;9.144;2023-07-31T06:03:59;99716.47;;;16.69
80422;BMP280;69763;50.182;9.144;2023-07-31T06:06:24;99706.72;;;16.75
80422;BMP280;69763;50.182;9.144;2023-07-31T06:08:50;99708.97;;;16.86
80422;BMP280;69763;50.182;9.144;2023-07-31T06:11:15;99710.63;;;16.99
80422;BMP280;69763;50.182;9.144;2023-07-31T06:13:41;99716.59;;;17.05
80422;BMP280;69763;50.182;9.144;2023-07-31T06:16:07;99707.53;;;17.12
80422;BMP280;69763;50.182;9.144;2023-07-31T06:18:33;99710.03;;;17.27
80422;BMP280;69763;50.182;9.144;2023-07-31T06:20:58;99706.09;;;17.47
80422;BMP280;69763;50.182;9.144;2023-07-31T06:23:23;99702.66;;;17.57
80422;BMP280;69763;50.182;9.144;2023-07-31T06:25:49;99707.28;;;17.54
80422;BMP280;69763;50.182;9.144;2023-07-31T06:28:14;99711.88;;;17.52
80422;BMP280;69763;50.182;9.144;2023-07-31T06:30:40;99707.09;;;17.52
80422;BMP280;69763;50.182;9.144;2023-07-31T06:33:06;99699.06;;;17.54
80422;BMP280;69763;50.182;9.144;2023-07-31T06:35:32;99711.91;;;17.61
80422;BMP280;69763;50.182;9.144;2023-07-31T06:37:57;99704.56;;;17.73
80422;BMP280;69763;50.182;9.144;2023-07-31T06:40:22;99693.19;;;17.86
80422;BMP280;69763;50.182;9.144;2023-07-31T06:42:48;99709.09;;;18.07
80422;BMP280;69763;50.182;9.144;2023-07-31T06:45:13;99716.03;;;18.18
80422;BMP280;69763;50.182;9.144;2023-07-31T06:47:39;99726.84;;;18.25
80422;BMP280;69763;50.182;9.144;2023-07-31T06:50:06;99714.28;;;18.32
80422;BMP280;69763;50.182;9.144;2023-07-31T06:52:32;99726.88;;;18.45
80422;BMP280;69763;50.182;9.144;2023-07-31T06:55:01;99718.03;;;18.56
80422;BMP280;69763;50.182;9.144;2023-07-31T06:57:27;99710.03;;;18.79
80422;BMP280;69763;50.182;9.144;2023-07-31T06:59:52;99707.81;;;19.06
80422;BMP280;69763;50.182;9.144;2023-07-31T07:02:17;99710.94;;;19.12
80422;BMP280;69763;50.182;9.144;2023-07-31T07:04:43;99694.44;;;19.22
80422;BMP280;69763;50.182;9.144;2023-07-31T07:07:09;99707.50;;;19.43
80422;BMP280;69763;50.182;9.144;2023-07-31T07:09:35;99702.47;;;19.81
80422;BMP280;69763;50.182;9.144;2023-07-31T07:12:00;99696.69;;;19.99
80422;BMP280;69763;50.182;9.144;2023-07-31T07:14:26;99709.72;;;19.98
80422;BMP280;69763;50.182;9.144;2023-07-31T07:16:51;99710.78;;;19.93
80422;BMP280;69763;50.182;9.144;2023-07-31T07:19:16;99707.44;;;19.95
80422;BMP280;69763;50.182;9.144;2023-07-31T07:21:42;99704.50;;;20.02
80422;BMP280;69763;50.182;9.144;2023-07-31T07:24:08;99699.03;;;20.14
80422;BMP280;69763;50.182;9.144;2023-07-31T07:26:34;99700.41;;;20.36
80422;BMP280;69763;50.182;9.144;2023-07-31T07:28:59;99694.63;;;20.76
80422;BMP280;69763;50.182;9.144;2023-07-31T07:31:25;99680.50;;;21.28
80422;BMP280;69763;50.182;9.144;2023-07-31T07:33:50;99684.34;;;21.72
80422;BMP280;69763;50.182;9.144;2023-07-31T07:36:15;99692.22;;;22.14
80422;BMP280;69763;50.182;9.144;2023-07-31T07:38:41;99687.34;;;22.26
80422;BMP280;69763;50.182;9.144;2023-07-31T07:41:08;99681.09;;;22.39
80422;BMP280;69763;50.182;9.144;2023-07-31T07:43:33;99679.66;;;22.64
80422;BMP280;69763;50.182;9.144;2023-07-31T07:45:58;99676.06;;;22.88
80422;BMP280;69763;50.182;9.144;2023-07-31T07:48:24;99685.47;;;23.38
80422;BMP280;69763;50.182;9.144;2023-07-31T07:50:49;99665.56;;;23.41
80422;BMP280;69763;50.182;9.144;2023-07-31T07:53:15;99682.72;;;23.38
80422;BMP280;69763;50.182;9.144;2023-07-31T07:55:40;99673.28;;;23.02
80422;BMP280;69763;50.182;9.144;2023-07-31T07:58:07;99676.72;;;22.87
80422;BMP280;69763;50.182;9.144;2023-07-31T08:00:33;99675.06;;;22.82
80422;BMP280;69763;50.182;9.144;2023-07-31T08:02:58;99674.31;;;22.68
80422;BMP280;69763;50.182;9.144;2023-07-31T08:05:24;99674.25;;;22.40
80422;BMP280;69763;50.182;9.144;2023-07-31T08:10:14;99677.16;;;22.04
80422;BMP280;69763;50.182;9.144;2023-07-31T08:12:40;99673.31;;;21.97
80422;BMP280;69763;50.182;9.144;2023-07-31T08:15:07;99673.44;;;21.99
80422;BMP280;69763;50.182;9.144;2023-07-31T08:17:33;99667.25;;;22.12
80422;BMP280;69763;50.182;9.144;2023-07-31T08:19:58;99662.50;;;22.40
80422;BMP280;69763;50.182;9.144;2023-07-31T08:22:24;99660.53;;;22.81
80422;BMP280;69763;50.182;9.144;2023-07-31T08:24:49;99655.91;;;23.13
80422;BMP280;69763;50.182;9.144;2023-07-31T08:27:14;99658.66;;;23.13
80422;BMP280;69763;50.182;9.144;2023-07-31T08:29:40;99657.44;;;23.03
80422;BMP280;69763;50.182;9.144;2023-07-31T08:32:07;99649.59;;;22.83
80422;BMP280;69763;50.182;9.144;2023-07-31T08:34:32;99648.34;;;22.86
80422;BMP280;69763;50.182;9.144;2023-07-31T08:36:58;99644.31;;;23.30
80422;BMP280;69763;50.182;9.144;2023-07-31T08:39:23;99642.44;;;24.09
80422;BMP280;69763;50.182;9.144;2023-07-31T08:41:48;99624.38;;;25.39
80422;BMP280;69763;50.182;9.144;2023-07-31T08:44:15;99641.63;;;26.50
80422;BMP280;69763;50.182;9.144;2023-07-31T08:46:41;99637.31;;;27.31
80422;BMP280;69763;50.182;9.144;2023-07-31T08:49:09;99643.44;;;27.97
80422;BMP280;69763;50.182;9.144;2023-07-31T08:51:36;99629.47;;;29.38
80422;BMP280;69763;50.182;9.144;2023-07-31T08:54:02;99628.16;;;30.12
80422;BMP280;69763;50.182;9.144;2023-07-31T08:56:27;99628.56;;;30.34
80422;BMP280;69763;50.182;9.144;2023-07-31T08:58:54;99633.41;;;29.26
80422;BMP280;69763;50.182;9.144;2023-07-31T09:01:20;99616.69;;;28.95
80422;BMP280;69763;50.182;9.144;2023-07-31T09:03:45;99628.22;;;28.53
80422;BMP280;69763;50.182;9.144;2023-07-31T09:06:13;99627.69;;;28.33
80422;BMP280;69763;50.182;9.144;2023-07-31T09:08:41;99639.81;;;27.69
80422;BMP280;69763;50.182;9.144;2023-07-31T09:11:07;99636.56;;;27.07
80422;BMP280;69763;50.182;9.144;2023-07-31T09:13:32;99636.41;;;27.01
80422;BMP280;69763;50.182;9.144;2023-07-31T09:15:58;99633.78;;;27.07
80422;BMP280;69763;50.182;9.144;2023-07-31T09:18:23;99637.13;;;27.25
80422;BMP280;69763;50.182;9.144;2023-07-31T09:21:00;99639.22;;;27.25
80422;BMP280;69763;50.182;9.144;2023-07-31T09:23:40;99639.03;;;26.97
80422;BMP280;69763;50.182;9.144;2023-07-31T09:26:05;99634.59;;;26.68
80422;BMP280;69763;50.182;9.144;2023-07-31T09:28:32;99629.78;;;26.49
80422;BMP280;69763;50.182;9.144;2023-07-31T09:30:57;99626.66;;;26.39
80422;BMP280;69763;50.182;9.144;2023-07-31T09:33:23;99627.88;;;25.95
80422;BMP280;69763;50.182;9.144;2023-07-31T09:35:48;99627.22;;;25.96
80422;BMP280;69763;50.182;9.144;2023-07-31T09:38:14;99620.16;;;25.56
80422;BMP280;69763;50.182;9.144;2023-07-31T09:40:43;99617.19;;;24.99
80422;BMP280;69763;50.182;9.144;2023-07-31T09:43:09;99620.91;;;24.54
80422;BMP280;69763;50.182;9.144;2023-07-31T09:45:36;99621.38;;;24.02
80422;BMP280;69763;50.182;9.144;2023-07-31T09:48:02;99612.47;;;23.59
80422;BMP280;69763;50.182;9.144;2023-07-31T09:50:28;99613.53;;;23.09
80422;BMP280;69763;50.182;9.144;2023-07-31T09:52:55;99630.00;;;22.52
80422;BMP280;69763;50.182;9.144;2023-07-31T09:55:21;99616.13;;;22.11
80422;BMP280;69763;50.182;9.144;2023-07-31T09:57:48;99613.72;;;21.67
80422;BMP280;69763;50.182;9.144;2023-07-31T10:00:15;99615.47;;;21.49
80422;BMP280;69763;50.182;9.144;2023-07-31T10:02:41;99609.25;;;21.36
80422;BMP280;69763;50.182;9.144;2023-07-31T10:05:12;99618.34;;;21.51
80422;BMP280;69763;50.182;9.144;2023-07-31T10:07:38;99607.09;;;21.72
80422;BMP280;69763;50.182;9.144;2023-07-31T10:10:04;99612.91;;;21.89
80422;BMP280;69763;50.182;9.144;2023-07-31T10:12:32;99607.91;;;22.25
80422;BMP280;69763;50.182;9.144;2023-07-31T10:14:59;99603.22;;;22.68
80422;BMP280;69763;50.182;9.144;2023-07-31T10:17:25;99599.41;;;22.89
80422;BMP280;69763;50.182;9.144;2023-07-31T10:19:51;99607.50;;;22.85
80422;BMP280;69763;50.182;9.144;2023-07-31T10:22:19;99605.38;;;22.70
80422;BMP280;69763;50.182;9.144;2023-07-31T10:24:45;99593.81;;;22.60
80422;BMP280;69763;50.182;9.144;2023-07-31T10:27:10;99598.00;;;22.61
80422;BMP280;69763;50.182;9.144;2023-07-31T10:29:36;99588.06;;;22.69
80422;BMP280;69763;50.182;9.144;2023-07-31T10:32:06;99595.25;;;22.88
80422;BMP280;69763;50.182;9.144;2023-07-31T10:34:33;99588.56;;;22.93
80422;BMP280;69763;50.182;9.144;2023-07-31T10:37:19;99574.06;;;22.79
80422;BMP280;69763;50.182;9.144;2023-07-31T10:39:55;99568.53;;;22.79
80422;BMP280;69763;50.182;9.144;2023-07-31T10:42:27;99574.22;;;22.96
80422;BMP280;69763;50.182;9.144;2023-07-31T10:44:56;99568.66;;;23.10
80422;BMP280;69763;50.182;9.144;2023-07-31T10:47:23;99564.84;;;23.31
80422;BMP280;69763;50.182;9.144;2023-07-31T10:49:48;99559.94;;;23.45
80422;BMP280;69763;50.182;9.144;2023-07-31T10:52:19;99562.91;;;23.49
80422;BMP280;69763;50.182;9.144;2023-07-31T10:54:45;99552.38;;;23.45
80422;BMP280;69763;50.182;9.144;2023-07-31T10:57:19;99550.22;;;23.44
80422;BMP280;69763;50.182;9.144;2023-07-31T10:59:45;99549.16;;;23.51
80422;BMP280;69763;50.182;9.144;2023-07-31T11:02:25;99549.88;;;23.52
80422;BMP280;69763;50.182;9.144;2023-07-31T11:05:05;99538.28;;;23.55
80422;BMP280;69763;50.182;9.144;2023-07-31T11:07:46;99539.34;;;23.32
80422;BMP280;69763;50.182;9.144;2023-07-31T11:10:16;99533.66;;;23.15
80422;BMP280;69763;50.182;9.144;2023-07-31T11:12:42;99523.22;;;23.00
80422;BMP280;69763;50.182;9.144;2023-07-31T11:15:08;99519.34;;;23.05
80422;BMP280;69763;50.182;9.144;2023-07-31T11:17:38;99521.47;;;23.06
80422;BMP280;69763;50.182;9.144;2023-07-31T11:20:04;99520.78;;;22.92
80422;BMP280;69763;50.182;9.144;2023-07-31T11:22:30;99519.44;;;22.64
80422;BMP280;69763;50.182;9.144;2023-07-31T11:24:55;99534.75;;;22.39
80422;BMP280;69763;50.182;9.144;2023-07-31T11:29:46;99527.19;;;21.99
80422;BMP280;69763;50.182;9.144;2023-07-31T11:32:15;99530.00;;;21.74
80422;BMP280;69763;50.182;9.144;2023-07-31T11:34:52;99529.63;;;21.29
80422;BMP280;69763;50.182;9.144;2023-07-31T11:37:17;99527.53;;;21.04
80422;BMP280;69763;50.182;9.144;2023-07-31T11:39:43;99523.09;;;20.99
80422;BMP280;69763;50.182;9.144;2023-07-31T11:42:08;99523.22;;;21.01
80422;BMP280;69763;50.182;9.144;2023-07-31T11:44:40;99514.84;;;20.99
80422;BMP280;69763;50.182;9.144;2023-07-31T11:47:06;99507.16;;;21.09
80422;BMP280;69763;50.182;9.144;2023-07-31T11:49:32;99505.78;;;21.22
80422;BMP280;69763;50.182;9.144;2023-07-31T11:51:58;99496.25;;;21.36
80422;BMP280;69763;50.182;9.144;2023-07-31T11:54:24;99501.53;;;21.58
80422;BMP280;69763;50.182;9.144;2023-07-31T11:56:50;99491.19;;;21.83
80422;BMP280;69763;50.182;9.144;2023-07-31T11:59:15;99488.25;;;22.07
80422;BMP280;69763;50.182;9.144;2023-07-31T12:01:41;99480.06;;;22.22
80422;BMP280;69763;50.182;9.144;2023-07-31T12:04:07;99482.41;;;22.41
80422;BMP280;69763;50.182;9.144;2023-07-31T12:06:33;99472.59;;;22.52
80422;BMP280;69763;50.182;9.144;2023-07-31T12:09:02;99474.22;;;22.57
80422;BMP280;69763;50.182;9.144;2023-07-31T12:11:28;99472.69;;;22.54
80422;BMP280;69763;50.182;9.144;2023-07-31T12:13:53;99471.75;;;22.63
80422;BMP280;69763;50.182;9.144;2023-07-31T12:16:19;99468.88;;;23.04
80422;BMP280;69763;50.182;9.144;2023-07-31T12:18:44;99462.97;;;23.41
80422;BMP280;69763;50.182;9.144;2023-07-31T12:21:10;99468.69;;;23.61
80422;BMP280;69763;50.182;9.144;2023-07-31T12:23:36;99461.38;;;23.52
80422;BMP280;69763;50.182;9.144;2023-07-31T12:26:05;99450.31;;;23.36
80422;BMP280;69763;50.182;9.144;2023-07-31T12:28:35;99457.50;;;23.12
80422;BMP280;69763;50.182;9.144;2023-07-31T12:31:01;99458.88;;;22.97
80422;BMP280;69763;50.182;9.144;2023-07-31T12:33:31;99452.50;;;22.79
80422;BMP280;69763;50.182;9.144;2023-07-31T12:35:57;99454.47;;;22.63
80422;BMP280;69763;50.182;9.144;2023-07-31T12:38:22;99443.03;;;22.55
80422;BMP280;69763;50.182;9.144;2023-07-31T12:40:47;99465.59;;;22.65
80422;BMP280;69763;50.182;9.144;2023-07-31T12:43:16;99455.00;;;22.88
80422;BMP280;69763;50.182;9.144;2023-07-31T12:45:41;99448.91;;;23.06
80422;BMP280;69763;50.182;9.144;2023-07-31T12:48:06;99450.84;;;23.03
80422;BMP280;69763;50.182;9.144;2023-07-31T12:50:32;99445.84;;;22.84
80422;BMP280;69763;50.182;9.144;2023-07-31T12:52:57;99436.88;;;22.70
80422;BMP280;69763;50.182;9.144;2023-07-31T12:55:23;99441.19;;;22.59
80422;BMP280;69763;50.182;9.144;2023-07-31T12:57:49;99444.88;;;22.64
80422;BMP280;69763;50.182;9.144;2023-07-31T13:00:16;99436.16;;;22.69
80422;BMP280;69763;50.182;9.144;2023-07-31T13:02:41;99431.22;;;22.97
80422;BMP280;69763;50.182;9.144;2023-07-31T13:05:07;99425.13;;;23.30
80422;BMP280;69763;50.182;9.144;2023-07-31T13:07:32;99423.44;;;23.54
80422;BMP280;69763;50.182;9.144;2023-07-31T13:09:58;99420.25;;;23.93
80422;BMP280;69763;50.182;9.144;2023-07-31T13:12:23;99413.00;;;24.17
80422;BMP280;69763;50.182;9.144;2023-07-31T13:14:48;99405.41;;;24.18
80422;BMP280;69763;50.182;9.144;2023-07-31T13:17:15;99411.69;;;24.02
80422;BMP280;69763;50.182;9.144;2023-07-31T13:19:40;99407.72;;;23.90
80422;BMP280;69763;50.182;9.144;2023-07-31T13:22:06;99407.19;;;23.78
80422;BMP280;69763;50.182;9.144;2023-07-31T13:24:31;99401.56;;;23.60
80422;BMP280;69763;50.182;9.144;2023-07-31T13:26:57;99400.44;;;23.65
80422;BMP280;69763;50.182;9.144;2023-07-31T13:29:22;99400.22;;;23.77
80422;BMP280;69763;50.182;9.144;2023-07-31T13:31:48;99404.88;;;23.72
80422;BMP280;69763;50.182;9.144;2023-07-31T13:34:14;99398.19;;;23.62
80422;BMP280;69763;50.182;9.144;2023-07-31T13:36:40;99396.13;;;23.46
80422;BMP280;69763;50.182;9.144;2023-07-31T13:39:05;99399.34;;;23.57
80422;BMP280;69763;50.182;9.144;2023-07-31T13:41:30;99394.88;;;23.81
80422;BMP280;69763;50.182;9.144;2023-07-31T13:43:56;99395.44;;;23.95
80422;BMP280;69763;50.182;9.144;2023-07-31T13:46:21;99390.09;;;23.99
80422;BMP280;69763;50.182;9.144;2023-07-31T13:48:46;99398.34;;;24.15
80422;BMP280;69763;50.182;9.144;2023-07-31T13:51:13;99392.59;;;24.26
80422;BMP280;69763;50.182;9.144;2023-07-31T13:53:38;99394.50;;;24.39
80422;BMP280;69763;50.182;9.144;2023-07-31T13:56:04;99390.47;;;24.42
80422;BMP280;69763;50.182;9.144;2023-07-31T13:58:29;99392.28;;;24.53
80422;BMP280;69763;50.182;9.144;2023-07-31T14:00:54;99390.22;;;24.54
80422;BMP280;69763;50.182;9.144;2023-07-31T14:03:20;99395.44;;;24.46
80422;BMP280;69763;50.182;9.144;2023-07-31T14:05:45;99388.66;;;24.67
80422;BMP280;69763;50.182;9.144;2023-07-31T14:08:12;99386.50;;;24.83